Aviation Digital Data Service (ADDS)

Output produced by TAFs form (2239 UTC 27 February 2015)
found at http://www.aviationweather.gov/adds/tafs/
 
KBJC 272150Z 34006KT 10SM BKN015 BKN050 M09/M13 A2990
KBJC 272117Z 2721/2818 36004KT P6SM VCSH BKN015 BKN050 
     FM272300 05005KT P6SM SCT020 BKN050 
     FM280200 VRB05KT P6SM FEW040 SCT080 BKN120 
     FM280800 25006KT P6SM FEW035 SCT070 BKN100 
     FM281000 30006KT P6SM FEW005 SCT100 
     FM281200 35006KT P6SM VCFG BKN005 
     FM281600 VRB05KT P6SM SCT005